createdAt,value
2024-01-22T00:00:55.086Z,0.70
2024-01-22T00:01:55.033Z,0.72
2024-01-22T00:02:55.143Z,0.70
2024-01-22T00:03:55.158Z,0.72
2024-01-22T00:04:55.230Z,0.72
2024-01-22T00:05:55.383Z,0.69
2024-01-22T00:06:55.363Z,0.72
2024-01-22T00:07:55.369Z,0.72
2024-01-22T00:08:55.457Z,0.70
2024-01-22T00:09:55.511Z,0.72
2024-01-22T00:10:55.555Z,0.73
2024-01-22T00:11:55.675Z,0.71
2024-01-22T00:12:55.718Z,0.69
2024-01-22T00:13:55.775Z,0.71
2024-01-22T00:14:55.915Z,0.70
2024-01-22T00:15:55.916Z,0.72
2024-01-22T00:16:55.953Z,0.74
2024-01-22T00:17:56.089Z,0.71
2024-01-22T00:18:56.272Z,0.70
2024-01-22T00:19:56.250Z,0.71
2024-01-22T00:20:56.230Z,0.71
2024-01-22T00:21:56.273Z,0.70
2024-01-22T00:22:56.335Z,0.70
2024-01-22T00:23:56.414Z,0.71
2024-01-22T00:24:56.447Z,0.70
2024-01-22T00:25:56.502Z,0.69
2024-01-22T00:26:56.614Z,0.70
2024-01-22T00:27:56.736Z,0.73
2024-01-22T00:28:56.696Z,0.70
2024-01-22T00:29:56.777Z,0.71
2024-01-22T00:30:56.806Z,0.70
2024-01-22T00:31:56.845Z,0.69
2024-01-22T00:32:57.047Z,0.72
2024-01-22T00:33:57.043Z,0.69
2024-01-22T00:34:57.099Z,0.70
2024-01-22T00:35:57.116Z,0.71
2024-01-22T00:36:57.195Z,0.69
2024-01-22T00:37:57.268Z,0.70
2024-01-22T00:38:57.356Z,0.71
2024-01-22T00:39:57.375Z,0.71
2024-01-22T00:40:57.456Z,0.69
2024-01-22T00:41:57.518Z,0.70
2024-01-22T00:42:57.554Z,0.69
2024-01-22T00:43:57.608Z,0.71
2024-01-22T00:44:57.703Z,0.69
2024-01-22T00:45:57.697Z,0.69
2024-01-22T00:46:57.792Z,0.69
2024-01-22T00:47:57.892Z,0.69
2024-01-22T00:48:57.968Z,0.70
2024-01-22T00:49:57.976Z,0.67
2024-01-22T00:50:58.066Z,0.69
2024-01-22T00:51:58.098Z,0.69
2024-01-22T00:52:58.169Z,0.68
2024-01-22T00:53:58.297Z,0.70
2024-01-22T00:54:58.271Z,0.70
2024-01-22T00:55:58.347Z,0.69
2024-01-22T00:56:58.440Z,0.70
2024-01-22T00:57:58.446Z,0.69
2024-01-22T00:58:58.539Z,0.69
2024-01-22T00:59:58.690Z,0.69
2024-01-22T01:00:58.701Z,0.69
2024-01-22T01:01:58.753Z,0.69
2024-01-22T01:02:58.898Z,0.68
2024-01-22T01:03:58.877Z,0.70
2024-01-22T01:04:58.939Z,0.71
2024-01-22T01:05:58.990Z,0.69
2024-01-22T01:06:59.042Z,0.68
2024-01-22T01:07:59.108Z,0.70
2024-01-22T01:08:59.157Z,0.70
2024-01-22T01:09:59.188Z,0.68
2024-01-22T01:10:59.287Z,0.68
2024-01-22T01:11:59.394Z,0.68
2024-01-22T01:12:59.382Z,0.67
2024-01-22T01:13:59.431Z,0.67
2024-01-22T01:14:59.532Z,0.67
2024-01-22T01:15:59.579Z,0.67
2024-01-22T01:16:59.650Z,0.68
2024-01-22T01:17:59.847Z,0.67
2024-01-22T01:18:59.905Z,0.68
2024-01-22T01:19:59.841Z,0.69
2024-01-22T01:20:59.929Z,0.69
2024-01-22T01:21:59.955Z,0.66
2024-01-22T01:23:00.033Z,0.67
2024-01-22T01:24:00.156Z,0.66
2024-01-22T01:25:00.238Z,0.66
2024-01-22T01:26:00.233Z,0.67
2024-01-22T01:27:00.323Z,0.68
2024-01-22T01:28:00.411Z,0.66
2024-01-22T01:29:00.442Z,0.67
2024-01-22T01:30:00.619Z,0.68
2024-01-22T01:31:00.588Z,0.65
2024-01-22T01:32:00.659Z,0.67
2024-01-22T01:33:00.851Z,0.65
2024-01-22T01:34:00.938Z,0.68
2024-01-22T01:35:00.850Z,0.66
2024-01-22T01:36:00.931Z,0.66
2024-01-22T01:37:01.007Z,0.68
2024-01-22T01:38:01.077Z,0.65
2024-01-22T01:39:01.184Z,0.68
2024-01-22T01:40:01.268Z,0.68
2024-01-22T01:41:01.299Z,0.68
2024-01-22T01:42:01.438Z,0.66
2024-01-22T01:43:01.391Z,0.65
2024-01-22T01:44:01.476Z,0.68
2024-01-22T01:45:01.641Z,0.66
2024-01-22T01:46:01.666Z,0.67
2024-01-22T01:47:01.716Z,0.68
2024-01-22T01:48:01.882Z,0.68
2024-01-22T01:49:02.046Z,0.66
2024-01-22T01:50:01.942Z,0.67
2024-01-22T01:51:02.134Z,0.67
2024-01-22T01:52:02.067Z,0.66
2024-01-22T01:53:02.116Z,0.66
2024-01-22T01:54:02.230Z,0.67
2024-01-22T01:55:02.226Z,0.67
2024-01-22T01:56:02.332Z,0.67
2024-01-22T01:57:02.464Z,0.66
2024-01-22T01:58:05.846Z,0.67
2024-01-22T01:59:02.471Z,0.67
2024-01-22T02:00:02.681Z,0.67
2024-01-22T02:01:02.654Z,0.67
2024-01-22T02:02:02.471Z,0.66
2024-01-22T02:03:02.574Z,0.67
2024-01-22T02:04:02.514Z,0.64
2024-01-22T02:05:02.495Z,0.66
2024-01-22T02:06:02.575Z,0.67
2024-01-22T02:07:02.465Z,0.67
2024-01-22T02:08:02.493Z,0.66
2024-01-22T02:09:02.535Z,0.66
2024-01-22T02:10:02.466Z,0.66
2024-01-22T02:11:02.468Z,0.67
2024-01-22T02:12:02.542Z,0.68
2024-01-22T02:13:02.483Z,0.65
2024-01-22T02:14:02.473Z,0.66
2024-01-22T02:15:02.487Z,0.66
2024-01-22T02:16:02.511Z,0.65
2024-01-22T02:17:02.493Z,0.66
2024-01-22T02:18:02.668Z,0.65
2024-01-22T02:19:02.555Z,0.65
2024-01-22T02:20:02.477Z,0.66
2024-01-22T02:21:02.541Z,0.67
2024-01-22T02:22:02.589Z,0.66
2024-01-22T02:23:02.625Z,0.66
2024-01-22T02:24:02.742Z,0.66
2024-01-22T02:25:02.773Z,0.66
2024-01-22T02:26:02.834Z,0.66
2024-01-22T02:27:02.986Z,0.65
2024-01-22T02:28:03.193Z,0.65
2024-01-22T02:29:03.079Z,0.65
2024-01-22T02:30:03.142Z,0.65
2024-01-22T02:31:03.197Z,0.66
2024-01-22T02:32:03.275Z,0.67
2024-01-22T02:33:03.457Z,0.65
2024-01-22T02:34:03.585Z,0.68
2024-01-22T02:35:03.460Z,0.67
2024-01-22T02:36:04.224Z,0.66
2024-01-22T02:37:03.622Z,0.65
2024-01-22T02:38:03.686Z,0.65
2024-01-22T02:39:03.767Z,0.66
2024-01-22T02:40:03.787Z,0.66
2024-01-22T02:41:03.885Z,0.64
2024-01-22T02:42:03.996Z,0.66
2024-01-22T02:43:03.971Z,0.65
2024-01-22T02:44:04.061Z,0.65
2024-01-22T02:45:04.251Z,0.67
2024-01-22T02:46:04.187Z,0.65
2024-01-22T02:47:04.279Z,0.66
2024-01-22T02:48:04.460Z,0.66
2024-01-22T02:49:04.569Z,0.64
2024-01-22T02:50:04.484Z,0.65
2024-01-22T02:51:04.559Z,0.66
2024-01-22T02:52:04.632Z,0.65
2024-01-22T02:53:04.654Z,0.67
2024-01-22T02:54:04.835Z,0.66
2024-01-22T02:55:04.821Z,0.68
2024-01-22T02:56:04.900Z,0.67
2024-01-22T02:57:05.020Z,0.67
2024-01-22T02:58:05.036Z,0.66
2024-01-22T02:59:05.137Z,0.65
2024-01-22T03:00:05.255Z,0.68
2024-01-22T03:01:05.336Z,0.67
2024-01-22T03:02:05.329Z,0.66
2024-01-22T03:03:05.407Z,0.69
2024-01-22T03:04:05.501Z,0.67
2024-01-22T03:05:05.557Z,0.68
2024-01-22T03:06:05.677Z,0.66
2024-01-22T03:07:05.756Z,0.67
2024-01-22T03:08:05.726Z,0.65
2024-01-22T03:09:05.825Z,0.64
2024-01-22T03:10:06.607Z,0.67
2024-01-22T03:11:05.973Z,0.65
2024-01-22T03:12:06.111Z,0.68
2024-01-22T03:13:06.054Z,0.67
2024-01-22T03:14:06.158Z,0.66
2024-01-22T03:15:06.317Z,0.67
2024-01-22T03:16:06.325Z,0.66
2024-01-22T03:17:06.372Z,0.66
2024-01-22T03:18:06.521Z,0.66
2024-01-22T03:19:06.660Z,0.66
2024-01-22T03:20:06.574Z,0.65
2024-01-22T03:21:06.733Z,0.66
2024-01-22T03:22:06.709Z,0.66
2024-01-22T03:23:06.759Z,0.68
2024-01-22T03:24:06.851Z,0.67
2024-01-22T03:25:06.850Z,0.66
2024-01-22T03:26:06.955Z,0.65
2024-01-22T03:27:07.068Z,0.67
2024-01-22T03:28:07.044Z,0.65
2024-01-22T03:29:07.137Z,0.67
2024-01-22T03:30:07.283Z,0.67
2024-01-22T03:31:07.246Z,0.67
2024-01-22T03:32:07.317Z,0.65
2024-01-22T03:33:07.443Z,0.68
2024-01-22T03:34:07.537Z,0.67
2024-01-22T03:35:07.459Z,0.67
2024-01-22T03:36:07.543Z,0.66
2024-01-22T03:37:07.590Z,0.66
2024-01-22T03:38:07.629Z,0.65
2024-01-22T03:39:10.222Z,0.69
2024-01-22T03:40:07.713Z,0.65
2024-01-22T03:41:07.685Z,0.65
2024-01-22T03:42:07.740Z,0.68
2024-01-22T03:43:07.708Z,0.67
2024-01-22T03:44:07.685Z,0.67
2024-01-22T03:45:07.765Z,0.66
2024-01-22T03:46:07.718Z,0.65
2024-01-22T03:47:07.677Z,0.66
2024-01-22T03:48:07.794Z,0.65
2024-01-22T03:49:07.808Z,0.65
2024-01-22T03:50:07.765Z,0.67
2024-01-22T03:51:07.777Z,0.65
2024-01-22T03:52:07.719Z,0.67
2024-01-22T03:53:07.695Z,0.67
2024-01-22T03:54:07.740Z,0.64
2024-01-22T03:55:07.700Z,0.66
2024-01-22T03:56:07.727Z,0.67
2024-01-22T03:57:07.793Z,0.66
2024-01-22T03:58:07.737Z,0.67
2024-01-22T03:59:07.705Z,0.65
2024-01-22T04:00:07.757Z,0.65
2024-01-22T04:01:07.771Z,0.65
2024-01-22T04:02:07.713Z,0.65
2024-01-22T04:03:07.774Z,0.65
2024-01-22T04:04:07.755Z,0.65
2024-01-22T04:05:07.735Z,0.65
2024-01-22T04:06:07.833Z,0.66
2024-01-22T04:07:07.829Z,0.66
2024-01-22T04:08:07.723Z,0.66
2024-01-22T04:09:07.747Z,0.65
2024-01-22T04:10:07.724Z,0.64
2024-01-22T04:11:07.712Z,0.65
2024-01-22T04:12:07.771Z,0.66
2024-01-22T04:13:07.744Z,0.65
2024-01-22T04:14:07.769Z,0.65
2024-01-22T04:15:07.857Z,0.63
2024-01-22T04:16:07.913Z,0.62
2024-01-22T04:17:07.973Z,0.63
2024-01-22T04:18:08.218Z,0.65
2024-01-22T04:19:08.229Z,0.63
2024-01-22T04:20:08.212Z,0.62
2024-01-22T04:21:08.299Z,0.65
2024-01-22T04:22:08.333Z,0.62
2024-01-22T04:23:08.416Z,0.64
2024-01-22T04:24:08.576Z,0.63
2024-01-22T04:25:08.524Z,0.62
2024-01-22T04:26:08.570Z,0.64
2024-01-22T04:27:08.704Z,0.64
2024-01-22T04:28:08.694Z,0.62
2024-01-22T04:29:08.728Z,0.64
2024-01-22T04:30:08.835Z,0.63
2024-01-22T04:31:08.878Z,0.62
2024-01-22T04:32:09.006Z,0.64
2024-01-22T04:33:09.115Z,0.64
2024-01-22T04:34:09.086Z,0.64
2024-01-22T04:35:09.048Z,0.63
2024-01-22T04:36:09.168Z,0.64
2024-01-22T04:37:09.140Z,0.63
2024-01-22T04:38:09.209Z,0.63
2024-01-22T04:39:09.254Z,0.62
2024-01-22T04:40:09.287Z,0.63
2024-01-22T04:41:09.361Z,0.63
2024-01-22T04:42:09.422Z,0.64
2024-01-22T04:43:09.444Z,0.64
2024-01-22T04:44:09.471Z,0.64
2024-01-22T04:45:09.605Z,0.65
2024-01-22T04:46:09.532Z,0.62
2024-01-22T04:47:09.590Z,0.62
2024-01-22T04:48:16.981Z,0.50
2024-01-22T04:49:16.951Z,0.50
2024-01-22T04:50:16.911Z,0.50
2024-01-22T04:51:16.967Z,0.50
2024-01-22T04:52:16.931Z,0.50
2024-01-22T04:53:16.902Z,0.50
2024-01-22T04:54:16.957Z,0.51
2024-01-22T04:55:21.173Z,0.50
2024-01-22T04:56:17.921Z,0.50
2024-01-22T04:57:16.969Z,0.51
2024-01-22T04:58:16.956Z,0.51
2024-01-22T04:59:16.944Z,0.51
2024-01-22T05:00:16.957Z,0.52
2024-01-22T05:01:16.961Z,0.51
2024-01-22T05:02:16.925Z,0.51
2024-01-22T05:03:17.044Z,0.50
2024-01-22T05:04:16.993Z,0.51
2024-01-22T05:05:17.097Z,0.53
2024-01-22T05:06:17.037Z,0.50
2024-01-22T05:07:16.896Z,0.50
2024-01-22T05:08:16.925Z,0.52
2024-01-22T05:09:16.965Z,0.52
2024-01-22T05:10:16.947Z,0.54
2024-01-22T05:11:16.924Z,0.55
2024-01-22T05:12:16.952Z,0.57
2024-01-22T05:13:16.932Z,0.54
2024-01-22T05:14:16.910Z,0.53
2024-01-22T05:15:17.123Z,0.52
2024-01-22T05:16:16.916Z,0.52
2024-01-22T05:17:16.938Z,0.52
2024-01-22T05:18:17.568Z,0.54
2024-01-22T05:19:17.062Z,0.53
2024-01-22T05:20:16.969Z,0.53
2024-01-22T05:21:17.092Z,0.52
2024-01-22T05:22:17.032Z,0.53
2024-01-22T05:23:17.058Z,0.54
2024-01-22T05:24:17.173Z,0.53
2024-01-22T05:25:17.045Z,0.53
2024-01-22T05:26:17.083Z,0.52
2024-01-22T05:27:17.227Z,0.53
2024-01-22T05:28:17.135Z,0.52
2024-01-22T05:29:17.126Z,0.53
2024-01-22T05:30:17.280Z,0.53
2024-01-22T05:31:17.170Z,0.52
2024-01-22T05:32:17.203Z,0.52
2024-01-22T05:33:17.277Z,0.53
2024-01-22T05:34:17.334Z,0.51
2024-01-22T05:35:17.217Z,0.51
2024-01-22T05:36:17.352Z,0.51
2024-01-22T05:37:17.246Z,0.51
2024-01-22T05:38:17.281Z,0.52
2024-01-22T05:39:17.333Z,0.53
2024-01-22T05:40:17.264Z,0.52
2024-01-22T05:41:17.268Z,0.53
2024-01-22T05:42:17.335Z,0.53
2024-01-22T05:43:17.333Z,0.52
2024-01-22T05:44:18.017Z,0.53
2024-01-22T05:45:17.485Z,0.52
2024-01-22T05:46:17.319Z,0.53
2024-01-22T05:47:17.336Z,0.52
2024-01-22T05:48:17.550Z,0.53
2024-01-22T05:49:17.477Z,0.52
2024-01-22T05:50:17.350Z,0.53
2024-01-22T05:51:17.485Z,0.52
2024-01-22T05:52:17.412Z,0.51
2024-01-22T05:53:17.452Z,0.50
2024-01-22T05:54:17.422Z,0.50
2024-01-22T05:55:19.483Z,0.50
2024-01-22T05:56:17.495Z,0.50
2024-01-22T05:57:17.581Z,0.50
2024-01-22T05:58:17.582Z,0.50
2024-01-22T05:59:17.613Z,0.50
2024-01-22T06:00:17.737Z,0.51
2024-01-22T06:01:18.781Z,0.50
2024-01-22T06:02:17.799Z,0.50
2024-01-22T06:03:17.946Z,0.51
2024-01-22T06:04:17.994Z,0.50
2024-01-22T06:05:17.941Z,0.50
2024-01-22T06:06:18.059Z,0.51
2024-01-22T06:07:18.133Z,0.52
2024-01-22T06:08:18.096Z,0.51
2024-01-22T06:09:18.251Z,0.51
2024-01-22T06:10:18.300Z,0.51
2024-01-22T06:11:18.199Z,0.50
2024-01-22T06:12:18.305Z,0.51
2024-01-22T06:13:18.260Z,0.51
2024-01-22T06:14:18.288Z,0.52
2024-01-22T06:15:18.382Z,0.52
2024-01-22T06:16:18.332Z,0.51
2024-01-22T06:17:18.374Z,0.52
2024-01-22T06:18:18.442Z,0.54
2024-01-22T06:19:18.465Z,0.54
2024-01-22T06:20:18.441Z,0.56
2024-01-22T06:21:18.497Z,0.53
2024-01-22T06:22:18.605Z,0.55
2024-01-22T06:23:18.570Z,0.53
2024-01-22T06:24:18.748Z,0.53
2024-01-22T06:25:18.575Z,0.54
2024-01-22T06:26:18.865Z,0.56
2024-01-22T06:27:18.806Z,0.56
2024-01-22T06:28:18.635Z,0.57
2024-01-22T06:29:18.613Z,0.56
2024-01-22T06:30:18.707Z,0.61
2024-01-22T06:31:18.758Z,0.60
2024-01-22T06:32:18.802Z,0.63
2024-01-22T06:33:18.879Z,0.59
2024-01-22T06:34:19.025Z,0.59
2024-01-22T06:35:18.764Z,0.63
2024-01-22T06:36:19.000Z,0.69
2024-01-22T06:37:18.890Z,0.69
2024-01-22T06:38:18.945Z,0.69
2024-01-22T06:39:19.155Z,0.70
2024-01-22T06:40:19.079Z,0.73
2024-01-22T06:41:19.149Z,0.67
2024-01-22T06:42:27.465Z,0.64
2024-01-22T06:43:20.233Z,0.64
2024-01-22T06:44:21.122Z,0.65
2024-01-22T06:45:19.259Z,0.66
2024-01-22T06:46:19.235Z,0.66
2024-01-22T06:47:19.223Z,0.68
2024-01-22T06:48:19.369Z,0.69
2024-01-22T06:49:19.498Z,0.71
2024-01-22T06:50:19.281Z,0.67
2024-01-22T06:51:27.011Z,0.66
2024-01-22T06:52:20.255Z,0.66
2024-01-22T06:53:19.257Z,0.67
2024-01-22T06:54:20.857Z,0.69
2024-01-22T06:55:19.219Z,0.70
2024-01-22T06:56:19.220Z,0.78
2024-01-22T06:57:19.368Z,0.89
2024-01-22T06:58:19.227Z,0.94
2024-01-22T06:59:19.241Z,0.95
2024-01-22T07:00:19.275Z,0.94
2024-01-22T07:01:19.282Z,0.93
2024-01-22T07:02:19.246Z,0.86
2024-01-22T07:03:19.267Z,0.87
2024-01-22T07:04:19.296Z,0.82
2024-01-22T07:05:19.308Z,0.78
2024-01-22T07:06:22.231Z,0.81
2024-01-22T07:07:19.256Z,0.81
2024-01-22T07:08:19.279Z,0.82
2024-01-22T07:09:19.284Z,0.84
2024-01-22T07:10:19.257Z,0.87
2024-01-22T07:11:19.258Z,0.92
2024-01-22T07:12:19.317Z,0.96
2024-01-22T07:13:19.277Z,0.96
2024-01-22T07:14:19.263Z,0.99
2024-01-22T07:15:19.461Z,1.01
2024-01-22T07:16:19.254Z,1.03
2024-01-22T07:17:19.248Z,1.02
2024-01-22T07:18:19.483Z,1.04
2024-01-22T07:19:19.445Z,1.07
2024-01-22T07:20:19.273Z,1.11
2024-01-22T07:21:19.427Z,1.10
2024-01-22T07:22:19.285Z,1.10
2024-01-22T07:23:19.288Z,1.12
2024-01-22T07:24:19.362Z,1.14
2024-01-22T07:25:19.266Z,1.15
2024-01-22T07:26:19.252Z,1.23
2024-01-22T07:27:19.324Z,1.22
2024-01-22T07:28:19.599Z,1.20
2024-01-22T07:29:19.288Z,1.22
2024-01-22T07:30:19.330Z,1.24
2024-01-22T07:31:19.305Z,1.29
2024-01-22T07:32:19.269Z,1.32
2024-01-22T07:33:19.392Z,1.31
2024-01-22T07:34:19.443Z,1.34
2024-01-22T07:35:19.361Z,1.39
2024-01-22T07:36:19.529Z,1.39
2024-01-22T07:37:19.548Z,1.38
2024-01-22T07:38:19.527Z,1.43
2024-01-22T07:39:19.649Z,1.51
2024-01-22T07:40:19.644Z,1.55
2024-01-22T07:41:19.692Z,1.57
2024-01-22T07:42:19.753Z,1.58
2024-01-22T07:43:19.733Z,1.60
2024-01-22T07:44:19.738Z,1.62
2024-01-22T07:45:20.941Z,1.67
2024-01-22T07:46:19.851Z,1.62
2024-01-22T07:47:21.568Z,1.61
2024-01-22T07:48:19.934Z,1.51
2024-01-22T07:49:19.957Z,1.56
2024-01-22T07:50:19.831Z,1.58
2024-01-22T07:51:19.946Z,1.64
2024-01-22T07:52:19.842Z,1.73
2024-01-22T07:53:19.830Z,1.94
2024-01-22T07:54:19.849Z,2.04
2024-01-22T07:55:19.931Z,2.07
2024-01-22T07:56:19.837Z,2.06
2024-01-22T07:57:19.896Z,2.07
2024-01-22T07:58:19.843Z,1.98
2024-01-22T07:59:19.863Z,1.94
2024-01-22T08:00:19.868Z,1.83
2024-01-22T08:01:19.909Z,1.86
2024-01-22T08:02:19.860Z,1.94
2024-01-22T08:03:19.920Z,1.98
2024-01-22T08:04:19.883Z,1.91
2024-01-22T08:05:19.856Z,1.91
2024-01-22T08:06:19.899Z,1.91
2024-01-22T08:07:20.895Z,1.96
2024-01-22T08:08:19.845Z,1.94
2024-01-22T08:09:19.948Z,1.94
2024-01-22T08:10:19.849Z,1.94
2024-01-22T08:11:19.848Z,1.94
2024-01-22T08:12:19.951Z,1.92
2024-01-22T08:13:19.833Z,1.92
2024-01-22T08:14:19.836Z,1.87
2024-01-22T08:15:19.874Z,1.92
2024-01-22T08:16:19.889Z,1.92
2024-01-22T08:17:19.873Z,1.91
2024-01-22T08:18:19.964Z,1.90
2024-01-22T08:19:19.976Z,1.89
2024-01-22T08:20:20.432Z,1.88
2024-01-22T08:21:19.965Z,1.84
2024-01-22T08:22:19.876Z,1.86
2024-01-22T08:23:19.853Z,1.88
2024-01-22T08:24:19.914Z,1.85
2024-01-22T08:25:19.869Z,1.91
2024-01-22T08:26:19.844Z,1.89
2024-01-22T08:27:19.965Z,1.91
2024-01-22T08:28:19.978Z,1.87
2024-01-22T08:29:20.045Z,1.83
2024-01-22T08:30:20.166Z,1.84
2024-01-22T08:31:21.100Z,1.79
2024-01-22T08:32:20.181Z,1.84
2024-01-22T08:33:20.477Z,1.83
2024-01-22T08:34:20.440Z,1.80
2024-01-22T08:35:20.607Z,1.78
2024-01-22T08:36:20.481Z,1.79
2024-01-22T08:37:20.514Z,1.79
2024-01-22T08:38:20.579Z,1.79
2024-01-22T08:39:20.711Z,1.79
2024-01-22T08:40:20.723Z,1.73
2024-01-22T08:41:20.796Z,1.72
2024-01-22T08:42:20.854Z,1.76
2024-01-22T08:43:20.831Z,1.81
2024-01-22T08:44:20.768Z,1.89
2024-01-22T08:45:20.893Z,1.83
2024-01-22T08:46:20.915Z,1.92
2024-01-22T08:47:21.012Z,1.99
2024-01-22T08:48:21.164Z,2.02
2024-01-22T08:49:21.184Z,2.14
2024-01-22T08:50:21.209Z,2.12
2024-01-22T08:51:21.295Z,2.29
2024-01-22T08:52:21.340Z,2.15
2024-01-22T08:53:21.423Z,2.17
2024-01-22T08:54:21.595Z,2.24
2024-01-22T08:55:21.534Z,2.25
2024-01-22T08:56:21.627Z,2.25
2024-01-22T08:57:21.748Z,2.27
2024-01-22T08:58:21.789Z,2.18
2024-01-22T08:59:21.804Z,2.21
2024-01-22T09:00:21.998Z,2.19
2024-01-22T09:01:22.009Z,2.17
2024-01-22T09:02:22.009Z,2.23
2024-01-22T09:03:22.090Z,2.25
2024-01-22T09:04:22.180Z,2.13
2024-01-22T09:05:22.273Z,2.25
2024-01-22T09:06:22.305Z,2.15
2024-01-22T09:07:22.328Z,2.17
2024-01-22T09:08:22.393Z,2.30
2024-01-22T09:09:22.528Z,2.33
2024-01-22T09:10:22.527Z,2.24
2024-01-22T09:11:22.622Z,2.23
2024-01-22T09:12:22.746Z,2.30
2024-01-22T09:13:22.749Z,2.33
2024-01-22T09:14:22.806Z,2.31
2024-01-22T09:15:22.933Z,2.37
2024-01-22T09:16:22.967Z,2.31
2024-01-22T09:17:22.996Z,2.37
2024-01-22T09:18:23.183Z,2.43
2024-01-22T09:19:23.183Z,2.45
2024-01-22T09:20:23.212Z,2.46
2024-01-22T09:21:23.244Z,2.47
2024-01-22T09:22:23.281Z,2.51
2024-01-22T09:23:23.423Z,2.52
2024-01-22T09:24:23.413Z,2.59
2024-01-22T09:25:23.480Z,2.61
2024-01-22T09:26:23.543Z,2.65
2024-01-22T09:27:23.633Z,2.60
2024-01-22T09:28:23.689Z,2.66
2024-01-22T09:29:23.749Z,2.67
2024-01-22T09:30:23.834Z,2.65
2024-01-22T09:31:23.831Z,2.71
2024-01-22T09:32:23.974Z,2.68
2024-01-22T09:33:24.021Z,2.74
2024-01-22T09:34:24.146Z,2.72
2024-01-22T09:35:24.131Z,2.78
2024-01-22T09:36:24.177Z,2.61
2024-01-22T09:37:24.236Z,2.67
2024-01-22T09:38:24.329Z,2.60
2024-01-22T09:39:24.370Z,2.67
2024-01-22T09:40:28.452Z,2.61
2024-01-22T09:41:25.466Z,2.61
2024-01-22T09:42:24.479Z,2.62
2024-01-22T09:43:24.431Z,2.64
2024-01-22T09:44:24.410Z,2.72
2024-01-22T09:45:24.427Z,2.91
2024-01-22T09:46:24.422Z,3.00
2024-01-22T09:47:24.432Z,3.14
2024-01-22T09:48:24.495Z,3.17
2024-01-22T09:49:24.620Z,3.19
2024-01-22T09:50:24.421Z,3.24
2024-01-22T09:51:24.457Z,3.20
2024-01-22T09:52:31.106Z,3.31
2024-01-22T09:53:24.481Z,3.32
2024-01-22T09:54:24.520Z,3.35
2024-01-22T09:55:24.430Z,3.42
2024-01-22T09:56:24.438Z,3.54
2024-01-22T09:57:24.513Z,3.70
2024-01-22T09:58:24.420Z,3.57
2024-01-22T09:59:24.409Z,3.73
2024-01-22T10:00:24.422Z,3.62
2024-01-22T10:01:24.429Z,3.88
2024-01-22T10:02:24.462Z,4.04
2024-01-22T10:03:24.752Z,4.07
2024-01-22T10:04:24.505Z,3.95
2024-01-22T10:05:24.564Z,4.02
2024-01-22T10:06:24.487Z,3.72
2024-01-22T10:07:24.425Z,3.50
2024-01-22T10:08:24.435Z,3.28
2024-01-22T10:09:24.534Z,3.31
2024-01-22T10:10:24.466Z,3.40
2024-01-22T10:11:24.435Z,3.60
2024-01-22T10:12:24.457Z,3.61
2024-01-22T10:13:24.445Z,3.48
2024-01-22T10:14:24.458Z,3.38
2024-01-22T10:15:24.602Z,3.21
2024-01-22T10:16:24.445Z,2.90
2024-01-22T10:17:24.504Z,2.91
2024-01-22T10:18:24.525Z,2.80
2024-01-22T10:19:24.544Z,2.76
2024-01-22T10:20:24.463Z,2.83
2024-01-22T10:21:24.603Z,2.84
2024-01-22T10:22:24.435Z,2.73
2024-01-22T10:23:24.479Z,2.88
2024-01-22T10:24:24.507Z,2.81
2024-01-22T10:25:24.467Z,2.77
2024-01-22T10:26:24.460Z,2.64
2024-01-22T10:27:24.557Z,2.71
2024-01-22T10:28:24.454Z,2.57
2024-01-22T10:29:24.463Z,2.59
2024-01-22T10:30:24.536Z,2.56
2024-01-22T10:31:24.424Z,2.64
2024-01-22T10:32:24.455Z,2.55
2024-01-22T10:33:24.625Z,2.51
2024-01-22T10:34:24.525Z,2.49
2024-01-22T10:35:24.457Z,2.37
2024-01-22T10:36:24.513Z,2.48
2024-01-22T10:37:24.441Z,2.40
2024-01-22T10:38:24.485Z,2.28
2024-01-22T10:39:24.502Z,2.27
2024-01-22T10:40:24.459Z,2.39
2024-01-22T10:41:24.484Z,2.25
2024-01-22T10:42:24.517Z,2.29
2024-01-22T10:43:24.488Z,2.32
2024-01-22T10:44:24.468Z,2.19
2024-01-22T10:45:24.669Z,2.26
2024-01-22T10:46:24.500Z,2.14
2024-01-22T10:47:24.502Z,2.21
2024-01-22T10:48:32.349Z,2.17
2024-01-22T10:49:25.593Z,2.17
2024-01-22T10:50:24.645Z,2.18
2024-01-22T10:51:24.516Z,2.20
2024-01-22T10:52:24.463Z,2.28
2024-01-22T10:53:24.491Z,2.37
2024-01-22T10:54:24.503Z,2.52
2024-01-22T10:55:24.568Z,2.52
2024-01-22T10:56:24.463Z,2.54
2024-01-22T10:57:24.507Z,2.55
2024-01-22T10:58:24.494Z,2.56
2024-01-22T10:59:24.462Z,2.47
2024-01-22T11:00:24.495Z,2.39
2024-01-22T11:01:24.626Z,2.35
2024-01-22T11:02:24.474Z,2.37
2024-01-22T11:03:24.526Z,2.23
2024-01-22T11:04:24.533Z,2.14
2024-01-22T11:05:24.540Z,2.14
2024-01-22T11:06:24.634Z,2.17
2024-01-22T11:07:24.481Z,2.21
2024-01-22T11:08:24.516Z,2.21
2024-01-22T11:09:24.554Z,2.16
2024-01-22T11:10:24.482Z,2.28
2024-01-22T11:11:24.509Z,2.28
2024-01-22T11:12:24.532Z,2.23
2024-01-22T11:13:24.512Z,2.35
2024-01-22T11:14:24.483Z,2.27
2024-01-22T11:15:24.567Z,2.28
2024-01-22T11:16:24.656Z,2.22
2024-01-22T11:17:24.516Z,2.24
2024-01-22T11:18:24.616Z,2.29
2024-01-22T11:19:24.670Z,2.20
2024-01-22T11:20:24.561Z,2.19
2024-01-22T11:21:24.625Z,2.19
2024-01-22T11:22:24.729Z,2.25
2024-01-22T11:23:24.798Z,2.16
2024-01-22T11:24:24.938Z,2.22
2024-01-22T11:25:24.896Z,2.20
2024-01-22T11:26:24.985Z,2.07
2024-01-22T11:27:25.122Z,2.14
2024-01-22T11:28:25.124Z,2.14
2024-01-22T11:29:25.163Z,2.20
2024-01-22T11:30:25.311Z,2.12
2024-01-22T11:31:25.269Z,2.14
2024-01-22T11:32:25.400Z,2.16
2024-01-22T11:33:25.652Z,2.22
2024-01-22T11:34:25.510Z,2.18
2024-01-22T11:35:25.819Z,2.23
2024-01-22T11:36:25.698Z,2.17
2024-01-22T11:37:25.671Z,2.18
2024-01-22T11:38:25.725Z,2.15
2024-01-22T11:39:25.833Z,2.20
2024-01-22T11:40:25.811Z,2.22
2024-01-22T11:41:25.880Z,2.35
2024-01-22T11:42:25.931Z,2.51
2024-01-22T11:43:25.991Z,2.47
2024-01-22T11:44:25.989Z,2.36
2024-01-22T11:45:30.233Z,2.38
2024-01-22T11:46:27.061Z,2.32
2024-01-22T11:47:26.074Z,2.33
2024-01-22T11:48:26.107Z,2.38
2024-01-22T11:49:26.059Z,2.51
2024-01-22T11:50:26.056Z,2.59
2024-01-22T11:51:26.044Z,2.50
2024-01-22T11:52:26.097Z,2.50
2024-01-22T11:53:26.021Z,2.43
2024-01-22T11:54:27.119Z,2.38
2024-01-22T11:55:26.013Z,2.35
2024-01-22T11:56:26.027Z,2.32
2024-01-22T11:57:26.151Z,2.37
2024-01-22T11:58:26.062Z,2.44
2024-01-22T11:59:26.083Z,2.34
2024-01-22T12:00:26.335Z,2.32
2024-01-22T12:01:26.206Z,2.34
2024-01-22T12:02:26.233Z,2.31
2024-01-22T12:03:26.489Z,2.36
2024-01-22T12:04:26.351Z,2.40
2024-01-22T12:05:26.380Z,2.44
2024-01-22T12:06:26.473Z,2.42
2024-01-22T12:07:26.468Z,2.22
2024-01-22T12:08:26.516Z,2.25
2024-01-22T12:09:26.725Z,2.21
2024-01-22T12:10:26.833Z,2.21
2024-01-22T12:11:26.651Z,2.27
2024-01-22T12:12:26.752Z,2.31
2024-01-22T12:13:26.779Z,2.26
2024-01-22T12:14:26.827Z,2.20
2024-01-22T12:15:27.042Z,2.21
2024-01-22T12:16:26.919Z,2.17
2024-01-22T12:17:26.944Z,2.19
2024-01-22T12:18:27.117Z,2.23
2024-01-22T12:19:27.030Z,2.18
2024-01-22T12:20:27.114Z,2.16
2024-01-22T12:21:27.114Z,2.13
2024-01-22T12:22:27.097Z,2.05
2024-01-22T12:23:27.167Z,2.20
2024-01-22T12:24:27.150Z,2.12
2024-01-22T12:25:27.140Z,2.12
2024-01-22T12:26:27.116Z,1.97
2024-01-22T12:27:27.184Z,1.99
2024-01-22T12:28:27.176Z,1.99
2024-01-22T12:29:27.567Z,2.07
2024-01-22T12:30:27.208Z,2.07
2024-01-22T12:31:27.141Z,2.07
2024-01-22T12:32:27.158Z,2.05
2024-01-22T12:33:28.985Z,2.06
2024-01-22T12:34:27.382Z,2.08
2024-01-22T12:35:27.377Z,2.14
2024-01-22T12:36:27.498Z,2.13
2024-01-22T12:37:27.450Z,2.19
2024-01-22T12:38:27.441Z,2.28
2024-01-22T12:39:27.508Z,2.32
2024-01-22T12:40:27.566Z,2.34
2024-01-22T12:41:27.465Z,2.20
2024-01-22T12:42:27.507Z,2.25
2024-01-22T12:43:27.500Z,2.18
2024-01-22T12:44:27.508Z,2.21
2024-01-22T12:45:27.714Z,2.24
2024-01-22T12:46:27.559Z,2.34
2024-01-22T12:47:27.864Z,2.27
2024-01-22T12:48:27.745Z,2.21
2024-01-22T12:49:27.765Z,2.26
2024-01-22T12:50:27.691Z,2.31
2024-01-22T12:51:28.278Z,2.28
2024-01-22T12:52:27.738Z,2.05
2024-01-22T12:53:28.468Z,1.97
2024-01-22T12:54:27.852Z,1.99
2024-01-22T12:55:27.867Z,1.91
2024-01-22T12:56:27.890Z,1.84
2024-01-22T12:57:27.986Z,1.79
2024-01-22T12:58:28.000Z,1.81
2024-01-22T12:59:30.021Z,1.95
2024-01-22T13:00:28.118Z,2.01
2024-01-22T13:01:28.058Z,1.91
2024-01-22T13:02:28.029Z,1.74
2024-01-22T13:03:28.175Z,1.72
2024-01-22T13:04:28.174Z,1.68
2024-01-22T13:05:30.114Z,1.65
2024-01-22T13:06:28.245Z,1.65
2024-01-22T13:07:28.090Z,1.66
2024-01-22T13:08:28.070Z,1.67
2024-01-22T13:09:28.108Z,1.66
2024-01-22T13:10:28.087Z,1.71
2024-01-22T13:11:29.317Z,1.77
2024-01-22T13:12:28.196Z,1.73
2024-01-22T13:13:28.028Z,1.66
2024-01-22T13:14:29.568Z,1.62
2024-01-22T13:15:28.141Z,1.67
2024-01-22T13:16:28.056Z,1.63
2024-01-22T13:17:28.137Z,1.66
2024-01-22T13:18:28.228Z,1.67
2024-01-22T13:19:28.249Z,1.68